Data for 12/05/2009

Time Sea-Level Adjusted Pressure Absolute Pressure Temperature Relative Humidity Dew Point   
(mb) (inHg) (mb) (inHg) (C) (F) (%) (C) (F)
00:05 1012 29.88 841 24.83 -7.5 18.6 85 -9.5 14.8
00:10 1012 29.88 841 24.83 -7.5 18.4 87 -9.3 15.2
00:15 1012 29.88 841 24.83 -7.6 18.3 87 -9.3 15.2
00:20 1012 29.88 841 24.83 -7.7 18.1 88 -9.3 15.3
00:25 1012 29.88 841 24.83 -7.8 18 89 -9.3 15.3
00:30 1012 29.88 841 24.83 -8 17.7 90 -9.4 15.2
00:35 1012 29.88 841 24.83 -8.2 17.3 91 -9.4 15
00:40 1012 29.88 841 24.83 -8.2 17.2 91 -9.4 15.1
00:45 1012 29.88 841 24.83 -8.2 17.2 92 -9.3 15.2
00:50 1012 29.88 841 24.83 -8.2 17.2 92 -9.2 15.4
00:55 1012 29.88 841 24.83 -8.2 17.3 93 -9.1 15.6
01:00 1012 29.88 841 24.83 -8 17.6 93 -9 15.8
01:05 1012 29.88 841 24.83 -7.8 18 92 -8.8 16.1
01:10 1012 29.88 842 24.86 -7.7 18.2 93 -8.7 16.4
01:15 1012 29.88 842 24.86 -7.5 18.5 93 -8.5 16.7
01:20 1012 29.88 842 24.86 -7.3 18.8 92 -8.5 16.8
01:25 1012 29.88 842 24.86 -7.3 18.9 91 -8.5 16.8
01:30 1013 29.91 842 24.86 -7.2 19 91 -8.5 16.7
01:35 1013 29.91 842 24.86 -7.3 18.8 91 -8.5 16.7
01:40 1013 29.91 842 24.86 -7.3 18.9 91 -8.6 16.6
01:45 1013 29.91 842 24.86 -7.3 18.8 91 -8.6 16.5
01:50 1013 29.91 842 24.86 -7.4 18.7 90 -8.7 16.3
01:55 1013 29.91 842 24.86 -7.6 18.3 91 -8.9 16
02:00 1013 29.91 842 24.86 -7.8 18 92 -8.9 15.9
02:05 1013 29.91 842 24.86 -7.8 18 91 -9 15.7
02:10 1013 29.91 842 24.86 -7.7 18.1 91 -9 15.8
02:15 1013 29.91 842 24.86 -7.6 18.3 90 -9.1 15.7
02:20 1013 29.91 842 24.86 -7.6 18.4 89 -9.1 15.7
02:25 1013 29.91 842 24.86 -7.6 18.2 89 -9.1 15.6
02:30 1013 29.91 842 24.86 -7.7 18.1 90 -9.1 15.5
02:35 1013 29.91 842 24.86 -7.8 17.9 90 -9.2 15.4
02:40 1013 29.91 842 24.86 -7.8 17.9 90 -9.3 15.3
02:45 1013 29.91 842 24.86 -7.8 17.9 89 -9.4 15.1
02:50 1013 29.91 842 24.86 -7.7 18.2 87 -9.4 15
02:55 1013 29.91 842 24.86 -7.6 18.4 87 -9.4 15
03:00 1013 29.91 842 24.86 -7.6 18.4 87 -9.4 15.1
03:05 1013 29.91 842 24.86 -7.6 18.4 86 -9.5 14.9
03:10 1013 29.91 842 24.86 -7.6 18.2 86 -9.6 14.7
03:15 1013 29.91 842 24.86 -7.7 18.2 84 -9.9 14.2
03:20 1013 29.91 842 24.86 -7.7 18.1 84 -9.9 14.1
03:25 1013 29.91 843 24.89 -7.7 18.1 84 -10 14
03:30 1013 29.91 843 24.89 -7.7 18.1 84 -10 14
03:35 1013 29.91 843 24.89 -7.7 18.2 84 -9.9 14.2
03:40 1013 29.91 843 24.89 -7.7 18.2 85 -9.8 14.4
03:45 1013 29.91 843 24.89 -7.7 18.2 85 -9.8 14.3
03:50 1013 29.91 843 24.89 -7.7 18.1 85 -9.8 14.4
03:55 1013 29.91 843 24.89 -7.9 17.7 87 -9.7 14.5
04:00 1013 29.91 843 24.89 -8 17.6 88 -9.6 14.6
04:05 1013 29.91 843 24.89 -8 17.7 88 -9.7 14.6
04:10 1013 29.91 843 24.89 -8 17.6 88 -9.7 14.6
04:15 1013 29.91 843 24.89 -8.1 17.4 88 -9.7 14.5
04:20 1013 29.91 842 24.86 -8.3 17.2 90 -9.7 14.6
04:25 1013 29.91 842 24.86 -8.2 17.2 90 -9.6 14.8
04:30 1013 29.91 842 24.86 -8.2 17.3 91 -9.4 15
04:35 1013 29.91 842 24.86 -8 17.6 90 -9.3 15.2
04:40 1013 29.91 842 24.86 -8 17.6 90 -9.4 15.2
04:45 1013 29.91 842 24.86 -8 17.7 90 -9.3 15.2
04:50 1013 29.91 842 24.86 -7.9 17.8 90 -9.3 15.3
04:55 1013 29.91 842 24.86 -7.9 17.8 89 -9.3 15.2
05:00 1013 29.91 843 24.89 -7.9 17.8 90 -9.3 15.3
05:05 1013 29.91 843 24.89 -7.9 17.7 90 -9.3 15.3
05:10 1013 29.91 843 24.89 -8 17.7 91 -9.2 15.5
05:15 1013 29.91 843 24.89 -8 17.7 92 -9.1 15.6
05:20 1013 29.91 843 24.89 -8 17.7 90 -9.3 15.3
05:25 1013 29.91 843 24.89 -8 17.5 91 -9.2 15.4
05:30 1013 29.91 843 24.89 -8.1 17.5 91 -9.3 15.3
05:35 1013 29.91 843 24.89 -8.1 17.4 91 -9.3 15.2
05:40 1014 29.94 843 24.89 -8.1 17.3 91 -9.4 15.1
05:45 1014 29.94 843 24.89 -8.2 17.3 91 -9.5 15
05:50 1014 29.94 843 24.89 -8.3 17.1 91 -9.5 14.8
05:55 1014 29.94 843 24.89 -8.4 16.9 91 -9.6 14.7
06:00 1014 29.94 843 24.89 -8.4 16.8 91 -9.6 14.7
06:05 1014 29.94 843 24.89 -8.5 16.8 92 -9.6 14.8
06:10 1014 29.94 843 24.89 -8.4 16.9 92 -9.5 14.9
06:15 1014 29.94 843 24.89 -8.4 16.9 92 -9.5 14.9
06:20 1014 29.94 843 24.89 -8.4 17 92 -9.4 15
06:25 1014 29.94 843 24.89 -8.4 16.9 92 -9.4 15.1
06:30 1014 29.94 843 24.89 -8.3 17 93 -9.3 15.2
06:35 1014 29.94 843 24.89 -8.3 17.1 92 -9.3 15.2
06:40 1014 29.94 843 24.89 -8.2 17.2 92 -9.3 15.2
06:45 1014 29.94 843 24.89 -8.3 17.1 92 -9.4 15.1
06:50 1014 29.94 843 24.89 -8.3 17 91 -9.5 14.9
06:55 1014 29.94 843 24.89 -8.4 16.9 91 -9.6 14.8
07:00 1014 29.94 843 24.89 -8.4 16.9 91 -9.7 14.6
07:05 1014 29.94 843 24.89 -8.4 16.9 90 -9.8 14.4
07:10 1014 29.94 843 24.89 -8.5 16.8 89 -9.9 14.1
07:15 1014 29.94 843 24.89 -8.5 16.8 88 -10.1 13.9
07:20 1014 29.94 843 24.89 -8.5 16.6 87 -10.4 13.3
07:25 1014 29.94 844 24.92 -8.6 16.5 86 -10.5 13.1
07:30 1014 29.94 844 24.92 -8.6 16.5 86 -10.5 13
07:35 1014 29.94 844 24.92 -8.7 16.4 86 -10.6 12.9
07:40 1014 29.94 844 24.92 -8.7 16.3 86 -10.7 12.7
07:45 1014 29.94 844 24.92 -8.8 16.2 85 -10.9 12.4
07:50 1015 29.97 844 24.92 -8.9 16.1 84 -11.1 12.1
07:55 1015 29.97 844 24.92 -8.8 16.1 84 -11.1 12
08:00 1015 29.97 844 24.92 -8.8 16.2 83 -11.2 11.8
08:05 1015 29.97 844 24.92 -8.8 16.2 82 -11.3 11.6
08:10 1015 29.97 844 24.92 -8.7 16.3 81 -11.4 11.5
08:15 1015 29.97 844 24.92 -8.7 16.4 81 -11.4 11.6
08:20 1015 29.97 844 24.92 -8.7 16.4 81 -11.4 11.4
08:25 1015 29.97 844 24.92 -8.7 16.3 81 -11.5 11.4
08:30 1015 29.97 844 24.92 -8.7 16.3 80 -11.6 11.2
08:35 1015 29.97 844 24.92 -8.7 16.3 80 -11.6 11.1
08:40 1015 29.97 844 24.92 -8.7 16.3 80 -11.6 11.2
08:45 1015 29.97 844 24.92 -8.7 16.4 80 -11.6 11.1
08:50 1015 29.97 844 24.92 -8.7 16.4 80 -11.5 11.2
08:55 1015 29.97 844 24.92 -8.6 16.5 80 -11.5 11.2
09:00 1015 29.97 844 24.92 -8.6 16.5 80 -11.5 11.4
09:05 1015 29.97 844 24.92 -8.6 16.6 79 -11.6 11.2
09:10 1015 29.97 845 24.95 -8.6 16.6 79 -11.6 11.2
09:15 1015 29.97 845 24.95 -8.5 16.7 78 -11.7 11
09:20 1015 29.97 845 24.95 -8.5 16.8 78 -11.7 11
09:25 1016 30 845 24.95 -8.5 16.6 78 -11.7 10.9
09:30 1016 30 845 24.95 -8.5 16.7 78 -11.7 10.9
09:35 1016 30 845 24.95 -8.5 16.7 77 -11.8 10.8
09:40 1016 30 845 24.95 -8.4 17 77 -11.7 10.9
09:45 1016 30 845 24.95 -8.3 17.2 76 -11.7 10.9
09:50 1016 30 845 24.95 -8.3 17 76 -11.9 10.5
09:55 1016 30 845 24.95 -8.3 17 76 -11.9 10.6
10:00 1016 30 845 24.95 -8.1 17.4 74 -11.9 10.5
10:05 1016 30 845 24.95 -8.2 17.3 75 -11.9 10.6
10:10 1016 30 845 24.95 -8.1 17.4 75 -11.9 10.7
10:15 1016 30 845 24.95 -8.1 17.4 74 -11.9 10.6
10:20 1016 30 845 24.95 -8.2 17.3 75 -11.9 10.6
10:25 1016 30 845 24.95 -8.1 17.3 75 -11.8 10.7
10:30 1016 30 845 24.95 -8.1 17.4 77 -11.6 11.2
10:35 1016 30 845 24.95 -8.3 17.1 78 -11.5 11.4
10:40 1016 30 845 24.95 -8.3 17.1 79 -11.2 11.8
10:45 1016 30 845 24.95 -8.3 17.1 80 -11.2 11.9
10:50 1016 30 846 24.98 -8.4 16.8 81 -11.2 11.9
10:55 1016 30 846 24.98 -8.3 17 82 -10.9 12.3
11:00 1016 30 846 24.98 -8.4 17 83 -10.8 12.6
11:05 1016 30 846 24.98 -8.4 16.9 83 -10.8 12.5
11:10 1016 30 846 24.98 -8.5 16.8 83 -10.8 12.5
11:15 1016 30 846 24.98 -8.4 16.8 84 -10.6 12.9
11:20 1016 30 846 24.98 -8.3 17 84 -10.5 13
11:25 1016 30 846 24.98 -8.2 17.3 83 -10.5 13.1
11:30 1016 30 846 24.98 -8.2 17.3 84 -10.4 13.3
11:35 1016 30 846 24.98 -8.1 17.4 83 -10.5 13.2
11:40 1016 30 846 24.98 -8 17.6 83 -10.4 13.3
11:45 1016 30 846 24.98 -8 17.6 83 -10.4 13.2
11:50 1016 30 846 24.98 -8.2 17.3 84 -10.3 13.4
11:55 1016 30 846 24.98 -8.4 16.9 85 -10.5 13
12:00 1016 30 846 24.98 -8.4 16.8 84 -10.6 12.9
12:05 1016 30 846 24.98 -8.5 16.7 85 -10.6 12.8
12:10 1016 30 846 24.98 -8.5 16.6 85 -10.6 12.8
12:15 1016 30 846 24.98 -8.5 16.7 85 -10.5 13
12:20 1016 30 846 24.98 -8.5 16.7 84 -10.7 12.8
12:25 1016 30 846 24.98 -8.6 16.5 84 -10.9 12.4
12:30 1016 30 846 24.98 -8.7 16.3 85 -10.9 12.4
12:35 1016 30 846 24.98 -8.7 16.3 84 -10.9 12.3
12:40 1016 30 846 24.98 -8.6 16.4 85 -10.8 12.6
12:45 1016 30 846 24.98 -8.6 16.6 84 -10.8 12.5
12:50 1016 30 846 24.98 -8.6 16.4 84 -10.8 12.5
12:55 1016 30 846 24.98 -8.5 16.7 84 -10.8 12.6
13:00 1016 30 846 24.98 -8.6 16.5 83 -10.9 12.3
13:05 1016 30 846 24.98 -8.6 16.5 84 -10.9 12.4
13:10 1016 30 846 24.98 -8.6 16.5 84 -10.9 12.4
13:15 1016 30 846 24.98 -8.6 16.5 85 -10.7 12.7
13:20 1016 30 846 24.98 -8.7 16.3 83 -11.1 12.1
13:25 1016 30 846 24.98 -8.9 16.1 83 -11.3 11.7
13:30 1017 30.03 846 24.98 -8.9 16 83 -11.3 11.7
13:35 1017 30.03 846 24.98 -8.8 16.2 82 -11.3 11.6
13:40 1017 30.03 846 24.98 -8.8 16.1 82 -11.4 11.5
13:45 1017 30.03 846 24.98 -8.9 16 81 -11.6 11.1
13:50 1017 30.03 846 24.98 -9 15.8 81 -11.7 11
13:55 1017 30.03 846 24.98 -9 15.8 79 -12 10.5
14:00 1017 30.03 846 24.98 -8.9 16 77 -12.2 10
14:05 1017 30.03 846 24.98 -8.9 16 76 -12.5 9.5
14:10 1017 30.03 846 24.98 -8.9 16 76 -12.4 9.6
14:15 1017 30.03 846 24.98 -8.7 16.3 75 -12.4 9.6
14:20 1017 30.03 846 24.98 -8.6 16.5 72 -12.7 9.1
14:25 1017 30.03 846 24.98 -8.5 16.6 71 -12.8 8.9
14:30 1017 30.03 846 24.98 -8.6 16.5 73 -12.6 9.4
14:35 1017 30.03 846 24.98 -8.9 15.9 74 -12.7 9.2
14:40 1017 30.03 846 24.98 -8.9 16 73 -12.9 8.8
14:45 1017 30.03 846 24.98 -8.8 16.1 71 -13.1 8.3
14:50 1017 30.03 846 24.98 -8.8 16.2 65 -14.2 6.5
14:55 1017 30.03 846 24.98 -8.8 16.1 60 -15.2 4.6
15:00 1017 30.03 846 24.98 -9.1 15.6 62 -15.1 4.8
15:05 1017 30.03 846 24.98 -9.2 15.4 60 -15.6 3.9
15:10 1017 30.03 846 24.98 -9.4 15.2 60 -15.7 3.7
15:15 1017 30.03 846 24.98 -9.3 15.3 61 -15.6 4
15:20 1017 30.03 847 25.01 -9.2 15.5 64 -14.8 5.4
15:25 1017 30.03 847 25.01 -9.2 15.5 72 -13.3 8
15:30 1017 30.03 847 25.01 -9.5 15 76 -13 8.6
15:35 1017 30.03 847 25.01 -9.5 14.9 76 -13 8.6
15:40 1018 30.06 847 25.01 -9.6 14.8 75 -13.1 8.3
15:45 1018 30.06 847 25.01 -9.5 14.8 75 -13.1 8.4
15:50 1018 30.06 847 25.01 -9.6 14.8 75 -13.3 8.1
15:55 1018 30.06 847 25.01 -9.6 14.7 75 -13.2 8.2
16:00 1018 30.06 847 25.01 -9.7 14.6 76 -13.1 8.4
16:05 1018 30.06 847 25.01 -9.8 14.4 77 -13.1 8.4
16:10 1018 30.06 847 25.01 -9.9 14.3 78 -13 8.6
16:15 1018 30.06 847 25.01 -9.9 14.3 79 -12.9 8.8
16:20 1018 30.06 847 25.01 -9.9 14.2 80 -12.8 9
16:25 1018 30.06 847 25.01 -10 14 80 -12.8 9
16:30 1018 30.06 847 25.01 -10.1 13.9 80 -12.9 8.8
16:35 1018 30.06 847 25.01 -10.1 13.9 80 -12.8 8.9
16:40 1018 30.06 847 25.01 -10.1 13.8 82 -12.6 9.3
16:45 1018 30.06 847 25.01 -10.3 13.6 84 -12.5 9.5
16:50 1018 30.06 847 25.01 -10.3 13.4 84 -12.6 9.3
16:55 1018 30.06 847 25.01 -10.4 13.3 84 -12.6 9.3
17:00 1018 30.06 847 25.01 -10.3 13.4 84 -12.6 9.4
17:05 1018 30.06 847 25.01 -10.4 13.4 84 -12.6 9.3
17:10 1018 30.06 847 25.01 -10.4 13.3 85 -12.5 9.5
17:15 1018 30.06 847 25.01 -10.4 13.3 85 -12.4 9.7
17:20 1018 30.06 847 25.01 -10.4 13.3 85 -12.4 9.7
17:25 1018 30.06 847 25.01 -10.4 13.3 85 -12.5 9.5
17:30 1018 30.06 847 25.01 -10.4 13.2 85 -12.5 9.5
17:35 1018 30.06 847 25.01 -10.5 13.1 85 -12.6 9.3
17:40 1018 30.06 847 25.01 -10.5 13 85 -12.6 9.2
17:45 1018 30.06 847 25.01 -10.5 13.1 85 -12.6 9.2
17:50 1018 30.06 847 25.01 -10.6 12.9 84 -12.8 9
17:55 1018 30.06 847 25.01 -10.7 12.7 83 -13.1 8.5
18:00 1018 30.06 847 25.01 -10.8 12.5 82 -13.4 7.9
18:05 1018 30.06 847 25.01 -10.8 12.6 81 -13.5 7.7
18:10 1018 30.06 847 25.01 -10.8 12.6 78 -13.9 7
18:15 1018 30.06 847 25.01 -10.8 12.6 77 -14 6.7
18:20 1018 30.06 847 25.01 -10.8 12.7 75 -14.3 6.2
18:25 1018 30.06 847 25.01 -10.7 12.7 74 -14.4 6
18:30 1018 30.06 847 25.01 -10.8 12.6 75 -14.3 6.3
18:35 1018 30.06 847 25.01 -10.9 12.4 76 -14.3 6.2
18:40 1018 30.06 847 25.01 -10.9 12.3 75 -14.6 5.7
18:45 1018 30.06 847 25.01 -11 12.3 73 -14.8 5.3
18:50 1018 30.06 847 25.01 -11 12.2 73 -14.8 5.3
18:55 1018 30.06 848 25.04 -10.9 12.3 73 -15 5.1
19:00 1018 30.06 848 25.04 -11 12.2 72 -15.2 4.7
19:05 1018 30.06 848 25.04 -11.1 12 72 -15.3 4.5
19:10 1018 30.06 848 25.04 -11.1 12 72 -15.3 4.5
19:15 1018 30.06 848 25.04 -11.1 12 72 -15.2 4.6
19:20 1018 30.06 848 25.04 -11.1 12 73 -15 5
19:25 1018 30.06 848 25.04 -11.1 12 73 -15 5.1
19:30 1018 30.06 848 25.04 -11.2 11.8 75 -14.8 5.4
19:35 1018 30.06 848 25.04 -11.3 11.6 77 -14.7 5.6
19:40 1018 30.06 848 25.04 -11.4 11.6 78 -14.5 5.9
19:45 1018 30.06 848 25.04 -11.4 11.5 78 -14.5 5.9
19:50 1018 30.06 848 25.04 -11.5 11.4 78 -14.5 5.8
19:55 1018 30.06 848 25.04 -11.5 11.3 78 -14.6 5.7
20:00 1018 30.06 848 25.04 -11.5 11.3 76 -14.9 5.3
20:05 1018 30.06 848 25.04 -11.5 11.3 76 -14.9 5.2
20:10 1018 30.06 848 25.04 -11.6 11.2 76 -14.9 5.1
20:15 1018 30.06 848 25.04 -11.6 11.1 77 -14.9 5.1
20:20 1019 30.09 848 25.04 -11.6 11.1 78 -14.7 5.5
20:25 1019 30.09 848 25.04 -11.6 11.1 78 -14.6 5.7
20:30 1019 30.09 848 25.04 -11.6 11.1 78 -14.7 5.5
20:35 1019 30.09 848 25.04 -11.7 11 77 -15 5.1
20:40 1019 30.09 848 25.04 -11.8 10.8 77 -15 5.1
20:45 1019 30.09 848 25.04 -11.7 10.9 78 -14.9 5.2
20:50 1019 30.09 848 25.04 -11.7 11 76 -15.1 4.9
20:55 1019 30.09 848 25.04 -11.7 11 74 -15.3 4.4
21:00 1019 30.09 848 25.04 -11.9 10.7 76 -15.4 4.4
21:05 1019 30.09 848 25.04 -11.8 10.8 76 -15.3 4.5
21:10 1019 30.09 848 25.04 -11.8 10.8 75 -15.4 4.3
21:15 1019 30.09 848 25.04 -11.9 10.7 74 -15.5 4
21:20 1019 30.09 848 25.04 -12 10.4 75 -15.6 3.9
21:25 1019 30.09 848 25.04 -12.3 10 78 -15.3 4.4
21:30 1019 30.09 848 25.04 -12.3 9.9 77 -15.5 4
21:35 1019 30.09 848 25.04 -12.2 10.1 76 -15.6 4
21:40 1019 30.09 848 25.04 -12.3 9.9 77 -15.5 4
21:45 1019 30.09 848 25.04 -12.3 9.9 79 -15.3 4.5
21:50 1019 30.09 848 25.04 -12.4 9.8 80 -15.1 4.8
21:55 1019 30.09 848 25.04 -12.4 9.7 79 -15.3 4.4
22:00 1019 30.09 848 25.04 -12.5 9.5 81 -15.2 4.7
22:05 1019 30.09 848 25.04 -12.6 9.3 80 -15.3 4.4
22:10 1019 30.09 848 25.04 -12.5 9.5 79 -15.5 4.1
22:15 1019 30.09 848 25.04 -12.6 9.3 79 -15.6 4
22:20 1019 30.09 848 25.04 -12.8 9 79 -15.7 3.8
22:25 1019 30.09 848 25.04 -12.8 9 80 -15.5 4.1
22:30 1019 30.09 848 25.04 -12.8 8.9 80 -15.6 3.9
22:35 1019 30.09 848 25.04 -12.9 8.8 80 -15.6 3.9
22:40 1019 30.09 848 25.04 -13.2 8.3 82 -15.6 3.9
22:45 1019 30.09 848 25.04 -13.2 8.2 81 -15.8 3.6
22:50 1019 30.09 848 25.04 -13.3 8 82 -15.8 3.6
22:55 1019 30.09 848 25.04 -13.4 8 83 -15.6 3.8
23:00 1019 30.09 848 25.04 -13.3 8 82 -15.7 3.7
23:05 1019 30.09 848 25.04 -13.3 8.1 83 -15.6 3.8
23:10 1019 30.09 848 25.04 -13.2 8.2 83 -15.5 4.1
23:15 1019 30.09 848 25.04 -13.3 8.1 84 -15.5 4.1
23:20 1019 30.09 848 25.04 -13.2 8.3 82 -15.6 4
23:25 1019 30.09 848 25.04 -13.1 8.3 83 -15.4 4.2
23:30 1019 30.09 848 25.04 -13.2 8.2 83 -15.6 4
23:35 1019 30.09 848 25.04 -13.3 8 81 -15.9 3.3
23:40 1019 30.09 848 25.04 -13.3 8 79 -16.3 2.7
23:45 1019 30.09 848 25.04 -13.2 8.3 75 -16.6 2
23:50 1019 30.09 848 25.04 -12.9 8.8 71 -17.1 1.3
23:55 1019 30.09 848 25.04 -12.8 8.9 69 -17.3 0.8
24:00 1019 30.09 848 25.04 -12.8 8.9 70 -17.3 0.9